Time;durP1;ratioP1;P1;durP2;ratioP2;P2;SDS_P1;SDS_P2;PMS_P1;PMS_P2;Temp;Humidity;BMP_temperature;BMP_pressure;BME280_temperature;BME280_humidity;BME280_pressure;Samples;Min_cycle;Max_cycle;Signal;HPM_P1;HPM_P2
2023/02/25 00:01:09;;;;;;;6.90;5.17;;;;;;;9.58;58.76;96319.53;4953389;28;20784;-70
2023/02/25 00:03:35;;;;;;;6.90;4.97;;;;;;;9.59;58.91;96315.94;4948536;28;20838;-71
2023/02/25 00:06:01;;;;;;;11.03;5.23;;;;;;;9.55;58.95;96319.84;4950258;28;20549;-70
2023/02/25 00:08:27;;;;;;;6.20;5.03;;;;;;;9.48;59.07;96320.53;4948721;28;20476;-70
2023/02/25 00:11:00;;;;;;;6.80;5.03;;;;;;;9.49;59.19;96316.09;4953578;28;20513;-71
2023/02/25 00:13:26;;;;;;;8.37;5.30;;;;;;;9.53;59.24;96322.66;4956125;28;20217;-70
2023/02/25 00:15:52;;;;;;;8.17;5.70;;;;;;;9.65;58.74;96320.47;4937905;29;20429;-71
2023/02/25 00:18:17;;;;;;;11.50;5.67;;;;;;;9.57;59.06;96320.50;4949459;28;20787;-71
2023/02/25 00:20:43;;;;;;;8.73;6.00;;;;;;;9.60;59.01;96320.97;4949262;28;20220;-70
2023/02/25 00:23:08;;;;;;;8.63;6.00;;;;;;;9.55;58.92;96312.84;4949392;28;20245;-69
2023/02/25 00:25:34;;;;;;;7.70;5.70;;;;;;;9.49;59.23;96308.25;4948584;28;20779;-69
2023/02/25 00:27:59;;;;;;;7.30;6.40;;;;;;;9.55;59.29;96318.06;4949199;28;20285;-69
2023/02/25 00:30:25;;;;;;;8.10;6.23;;;;;;;9.55;59.22;96310.22;4946342;28;20182;-68
2023/02/25 00:32:50;;;;;;;7.93;5.43;;;;;;;9.58;58.95;96320.31;4948908;28;20206;-71
2023/02/25 00:35:16;;;;;;;10.47;6.60;;;;;;;9.56;58.95;96309.25;4952300;28;20269;-68
2023/02/25 00:37:41;;;;;;;16.57;6.10;;;;;;;9.60;58.82;96307.91;4957756;28;20193;-70
2023/02/25 00:40:13;;;;;;;8.23;5.67;;;;;;;9.54;58.85;96321.66;4954006;28;20189;-71
2023/02/25 00:42:40;;;;;;;10.00;6.27;;;;;;;9.44;58.67;96328.88;4955174;28;20264;-70
2023/02/25 00:45:06;;;;;;;9.50;6.30;;;;;;;9.46;59.37;96321.66;4954005;28;20838;-70
2023/02/25 00:47:32;;;;;;;10.40;6.60;;;;;;;9.42;59.21;96326.41;4930758;28;20496;-70
2023/02/25 00:49:57;;;;;;;10.10;6.47;;;;;;;9.37;58.96;96313.03;4948259;28;20538;-70
2023/02/25 00:52:23;;;;;;;7.13;6.10;;;;;;;9.29;59.26;96311.25;4930482;28;20202;-70
2023/02/25 00:54:48;;;;;;;7.90;5.83;;;;;;;9.44;59.37;96315.81;4930989;29;20307;-69
2023/02/25 00:57:14;;;;;;;9.60;6.87;;;;;;;9.30;59.48;96322.50;4951747;28;20222;-70
2023/02/25 00:59:39;;;;;;;9.50;6.57;;;;;;;9.41;59.40;96331.81;4953036;28;20679;-70
2023/02/25 01:02:05;;;;;;;6.80;6.03;;;;;;;9.52;59.22;96328.84;4948804;28;20269;-70
2023/02/25 01:04:30;;;;;;;10.80;6.80;;;;;;;9.52;59.40;96326.25;4937271;28;20261;-70
2023/02/25 01:06:56;;;;;;;15.90;6.30;;;;;;;9.43;59.62;96332.47;4948424;28;20265;-71
2023/02/25 01:09:21;;;;;;;7.03;6.23;;;;;;;9.43;59.12;96338.50;4931250;29;20186;-70
2023/02/25 01:11:47;;;;;;;8.30;6.13;;;;;;;9.38;59.25;96335.59;4958042;28;20667;-70
2023/02/25 01:14:18;;;;;;;8.47;6.27;;;;;;;9.41;58.89;96331.81;4948308;28;20221;-70
2023/02/25 01:16:44;;;;;;;9.47;5.97;;;;;;;9.40;59.19;96335.41;4950610;28;20186;-70
2023/02/25 01:19:18;;;;;;;6.57;5.57;;;;;;;9.41;58.32;96326.59;4948929;28;20491;-68
2023/02/25 01:21:46;;;;;;;8.70;5.90;;;;;;;9.44;57.43;96329.69;4931410;28;20427;-70
2023/02/25 01:24:15;;;;;;;9.00;5.90;;;;;;;9.47;57.51;96337.22;4949168;28;20514;-70
2023/02/25 01:26:41;;;;;;;8.43;6.03;;;;;;;9.46;57.31;96332.97;4955671;28;20425;-69
2023/02/25 01:29:08;;;;;;;6.67;5.10;;;;;;;9.52;56.90;96345.34;4950382;28;20432;-70
2023/02/25 01:31:34;;;;;;;6.10;5.03;;;;;;;9.59;57.62;96357.78;4945686;28;20438;-69
2023/02/25 01:34:01;;;;;;;8.40;5.80;;;;;;;9.58;57.17;96364.81;4952261;28;20832;-70
2023/02/25 01:36:27;;;;;;;9.10;6.50;;;;;;;9.60;56.75;96369.88;4947390;28;20187;-69
2023/02/25 01:38:52;;;;;;;9.67;6.20;;;;;;;9.61;56.73;96382.78;4947292;28;20418;-71
2023/02/25 01:41:18;;;;;;;8.30;5.27;;;;;;;9.55;56.97;96382.63;4949200;28;20502;-70
2023/02/25 01:44:21;;;;;;;7.97;5.23;;;;;;;9.53;56.34;96381.00;4952514;28;20232;-71
2023/02/25 01:46:52;;;;;;;8.30;5.20;;;;;;;9.47;56.39;96371.22;4948158;28;20225;-70
2023/02/25 01:49:28;;;;;;;8.50;4.57;;;;;;;9.47;55.84;96365.97;4953020;28;20933;-70
2023/02/25 01:52:02;;;;;;;5.50;4.40;;;;;;;9.40;56.11;96358.97;4930024;29;20429;-70
2023/02/25 01:54:28;;;;;;;8.03;4.63;;;;;;;9.37;55.42;96341.81;4948155;28;20978;-70
2023/02/25 01:56:54;;;;;;;7.27;4.90;;;;;;;9.37;56.10;96339.19;4960400;28;20543;-70
2023/02/25 01:59:22;;;;;;;7.53;4.90;;;;;;;9.41;55.22;96350.13;4944230;28;20241;-72
2023/02/25 02:01:48;;;;;;;8.87;5.13;;;;;;;9.29;55.68;96350.47;4936242;28;20418;-71
2023/02/25 02:04:15;;;;;;;7.13;4.20;;;;;;;9.34;55.40;96345.56;4953536;28;20984;-71
2023/02/25 02:06:43;;;;;;;5.37;4.57;;;;;;;9.38;54.60;96357.31;4933723;28;20242;-71
2023/02/25 02:09:12;;;;;;;6.83;4.47;;;;;;;9.33;54.56;96364.03;4959023;28;20509;-71
2023/02/25 02:11:38;;;;;;;7.27;4.27;;;;;;;9.30;55.30;96364.34;4956772;28;20438;-71
2023/02/25 02:14:05;;;;;;;4.30;3.83;;;;;;;9.26;55.64;96371.72;4950763;28;20480;-69
2023/02/25 02:16:30;;;;;;;12.90;3.97;;;;;;;9.20;55.87;96360.13;4969770;28;20429;-71
2023/02/25 02:18:58;;;;;;;6.23;4.13;;;;;;;9.18;55.64;96361.28;4951310;28;20433;-72
2023/02/25 02:21:53;;;;;;;7.23;4.20;;;;;;;9.15;56.24;96354.56;4937177;29;20587;-72
2023/02/25 02:24:46;;;;;;;8.70;4.17;;;;;;;9.18;55.78;96362.06;4934302;29;21071;-71
2023/02/25 02:27:42;;;;;;;5.83;3.97;;;;;;;9.12;55.37;96377.59;4940062;29;20437;-70
2023/02/25 02:30:16;;;;;;;6.23;3.60;;;;;;;9.15;55.60;96370.25;4954520;28;20531;-70
2023/02/25 02:32:49;;;;;;;5.73;3.80;;;;;;;9.14;55.67;96371.22;4931652;28;21028;-70
2023/02/25 02:35:37;;;;;;;9.03;4.20;;;;;;;9.14;55.58;96391.31;4959053;28;20986;-72
2023/02/25 02:38:36;;;;;;;5.40;4.17;;;;;;;9.07;56.14;96381.50;4937672;28;20436;-71
2023/02/25 02:41:14;;;;;;;5.53;4.23;;;;;;;9.18;55.95;96369.13;4944488;28;20424;-71
2023/02/25 02:43:44;;;;;;;9.73;4.50;;;;;;;9.18;55.80;96366.50;4953335;28;20477;-71
2023/02/25 02:46:28;;;;;;;5.20;4.30;;;;;;;9.22;55.79;96370.41;4951285;28;20460;-71
2023/02/25 02:48:58;;;;;;;5.30;4.40;;;;;;;9.25;56.46;96380.53;4946492;28;20861;-72
2023/02/25 02:51:33;;;;;;;5.80;4.67;;;;;;;9.20;56.38;96377.59;4962318;28;20522;-71
2023/02/25 02:54:00;;;;;;;8.43;4.70;;;;;;;9.10;56.93;96377.78;4930803;28;20959;-71
2023/02/25 02:56:27;;;;;;;6.17;4.40;;;;;;;9.19;56.73;96374.16;4957247;28;20487;-71
2023/02/25 02:58:58;;;;;;;6.07;4.30;;;;;;;9.10;57.39;96374.31;4932982;28;20422;-71
2023/02/25 03:01:31;;;;;;;6.10;5.13;;;;;;;9.19;57.66;96384.63;4936718;29;20434;-71
2023/02/25 03:04:13;;;;;;;6.67;4.60;;;;;;;9.15;57.14;96387.72;4956115;28;20578;-70
2023/02/25 03:06:42;;;;;;;11.67;5.30;;;;;;;9.09;56.69;96380.53;4932914;28;20468;-71
2023/02/25 03:09:29;;;;;;;8.50;4.80;;;;;;;9.15;56.04;96382.50;4950424;28;20434;-71
2023/02/25 03:11:55;;;;;;;8.67;4.80;;;;;;;9.07;56.11;96378.88;4939487;28;20425;-70
2023/02/25 03:14:21;;;;;;;10.43;5.00;;;;;;;9.08;55.59;96390.19;4950968;28;20832;-71
2023/02/25 03:16:52;;;;;;;10.00;4.43;;;;;;;9.13;55.35;96393.13;4949647;28;20513;-71
2023/02/25 03:19:24;;;;;;;4.27;3.70;;;;;;;9.03;54.71;96395.06;4934546;29;20190;-71
2023/02/25 03:22:03;;;;;;;6.50;3.93;;;;;;;8.99;55.12;96394.56;4955181;28;21454;-72
2023/02/25 03:24:34;;;;;;;7.83;4.03;;;;;;;8.98;54.75;96395.56;4937247;29;20421;-72
2023/02/25 03:27:18;;;;;;;9.90;3.40;;;;;;;8.94;54.64;96394.25;4918902;29;20423;-71
2023/02/25 03:29:43;;;;;;;5.40;3.50;;;;;;;8.95;54.90;96393.25;4931004;28;20591;-71
2023/02/25 03:32:11;;;;;;;6.93;4.13;;;;;;;8.93;54.55;96400.47;4948209;28;20896;-71
2023/02/25 03:34:42;;;;;;;8.90;3.37;;;;;;;8.95;52.87;96400.28;4934566;28;20210;-71
2023/02/25 03:37:15;;;;;;;4.73;3.07;;;;;;;8.90;53.92;96392.94;4933458;29;20434;-72
2023/02/25 03:39:43;;;;;;;6.60;2.80;;;;;;;8.93;53.04;96404.88;4938667;28;20435;-71
2023/02/25 03:42:11;;;;;;;3.77;2.60;;;;;;;8.89;52.63;96397.34;4933320;29;20438;-71
2023/02/25 03:44:42;;;;;;;6.60;2.27;;;;;;;8.81;51.59;96399.16;4941263;28;20436;-72
2023/02/25 03:47:08;;;;;;;4.77;2.03;;;;;;;8.91;52.13;96407.66;4939321;29;20457;-70
2023/02/25 03:49:53;;;;;;;4.27;2.13;;;;;;;8.96;51.84;96402.75;4929740;28;20427;-71
2023/02/25 03:52:20;;;;;;;3.97;2.00;;;;;;;8.93;51.76;96405.69;4948448;28;20434;-71
2023/02/25 03:54:53;;;;;;;6.47;1.80;;;;;;;8.91;51.99;96408.44;4949393;28;20805;-71
2023/02/25 03:57:23;;;;;;;7.10;1.97;;;;;;;8.87;51.94;96406.31;4955989;28;20486;-72
2023/02/25 03:59:50;;;;;;;4.67;1.93;;;;;;;8.81;52.22;96406.97;4937885;28;20427;-71
2023/02/25 04:02:16;;;;;;;6.20;2.07;;;;;;;8.73;51.71;96416.41;4950069;28;20513;-71
2023/02/25 04:04:42;;;;;;;5.27;1.97;;;;;;;8.85;52.45;96419.56;4952046;28;20914;-71
2023/02/25 04:07:07;;;;;;;8.50;2.70;;;;;;;8.87;51.73;96420.22;4952658;28;20541;-71
2023/02/25 04:09:33;;;;;;;6.47;1.83;;;;;;;8.90;52.08;96426.91;4950358;28;20770;-71
2023/02/25 04:11:58;;;;;;;4.10;1.80;;;;;;;8.94;51.96;96430.84;4955970;28;20531;-71
2023/02/25 04:14:23;;;;;;;9.03;4.50;;;;;;;8.96;51.30;96430.69;4953155;28;20237;-70
2023/02/25 04:16:49;;;;;;;4.40;2.53;;;;;;;8.83;51.29;96437.19;4952072;28;20190;-71
2023/02/25 04:19:14;;;;;;;4.00;2.43;;;;;;;8.89;51.74;96435.72;4950933;28;20821;-71
2023/02/25 04:21:40;;;;;;;4.67;2.20;;;;;;;8.88;51.15;96434.09;4950748;28;20539;-70
2023/02/25 04:24:06;;;;;;;4.53;2.20;;;;;;;8.85;51.58;96439.63;4951252;28;20218;-71
2023/02/25 04:26:33;;;;;;;4.23;1.80;;;;;;;8.80;51.56;96436.69;4950632;28;20808;-72
2023/02/25 04:28:58;;;;;;;9.03;2.10;;;;;;;8.83;50.26;96441.59;4940530;28;20182;-71
2023/02/25 04:31:24;;;;;;;3.93;1.90;;;;;;;8.74;50.79;96433.72;4945331;28;20440;-71
2023/02/25 04:33:49;;;;;;;5.90;1.97;;;;;;;8.76;50.69;96436.19;4957115;28;20249;-71
2023/02/25 04:36:26;;;;;;;2.93;1.80;;;;;;;8.85;51.39;96431.78;4931825;28;20552;-72
2023/02/25 04:38:52;;;;;;;3.87;2.20;;;;;;;8.94;51.26;96433.47;4957062;28;20186;-71
2023/02/25 04:41:17;;;;;;;5.77;2.80;;;;;;;8.91;51.19;96439.00;4958660;28;20510;-69
2023/02/25 04:43:44;;;;;;;6.43;3.00;;;;;;;8.88;50.37;96431.47;4955092;28;20293;-70
2023/02/25 04:46:10;;;;;;;5.80;2.60;;;;;;;8.88;50.78;96439.31;4958169;28;20189;-71
2023/02/25 04:48:36;;;;;;;6.93;3.47;;;;;;;8.96;50.76;96436.72;4949435;28;20442;-70
2023/02/25 04:51:02;;;;;;;13.17;9.00;;;;;;;8.95;50.91;96434.28;4958287;28;20577;-70
2023/02/25 04:53:27;;;;;;;10.93;6.77;;;;;;;8.96;50.86;96441.13;4949844;28;20206;-71
2023/02/25 04:55:53;;;;;;;7.10;2.57;;;;;;;8.90;50.16;96443.41;4952426;28;20194;-71
2023/02/25 04:58:18;;;;;;;4.97;2.30;;;;;;;8.86;51.21;96449.09;4964369;28;20200;-71
2023/02/25 05:00:47;;;;;;;8.23;2.60;;;;;;;8.82;51.75;96446.00;4952653;28;20185;-71
2023/02/25 05:03:14;;;;;;;3.20;2.27;;;;;;;8.67;52.72;96443.19;4950049;28;20198;-70
2023/02/25 05:05:40;;;;;;;11.40;3.50;;;;;;;8.63;51.86;96444.47;4932034;28;20430;-72
2023/02/25 05:08:05;;;;;;;6.50;3.23;;;;;;;8.69;51.04;96451.69;4950674;28;20461;-69
2023/02/25 05:10:31;;;;;;;5.83;2.57;;;;;;;8.69;50.92;96454.31;4966151;28;20191;-69
2023/02/25 05:12:56;;;;;;;4.70;1.93;;;;;;;8.65;50.58;96450.38;4957904;28;20753;-70
2023/02/25 05:15:22;;;;;;;6.23;2.10;;;;;;;8.63;50.48;96447.09;4951090;28;20212;-72
2023/02/25 05:17:47;;;;;;;5.70;1.73;;;;;;;8.61;48.83;96449.03;4957709;28;20642;-70
2023/02/25 05:20:13;;;;;;;2.50;1.53;;;;;;;8.64;48.90;96453.13;4954788;28;20192;-71
2023/02/25 05:22:42;;;;;;;6.20;1.73;;;;;;;8.68;49.44;96446.63;4951480;28;20206;-72
2023/02/25 05:25:08;;;;;;;5.20;1.77;;;;;;;8.62;49.16;96442.84;4951290;28;20434;-70
2023/02/25 05:27:34;;;;;;;5.33;2.10;;;;;;;8.59;48.80;96451.81;4918360;28;20847;-69
2023/02/25 05:30:00;;;;;;;6.43;1.70;;;;;;;8.53;48.94;96452.44;4935333;28;20430;-71
2023/02/25 05:32:25;;;;;;;3.70;1.70;;;;;;;8.56;48.73;96456.56;4952446;28;20572;-72
2023/02/25 05:34:51;;;;;;;2.10;1.40;;;;;;;8.53;49.18;96455.06;4955692;28;20310;-72
2023/02/25 05:37:16;;;;;;;5.00;1.77;;;;;;;8.54;48.84;96453.28;4957631;28;20184;-72
2023/02/25 05:39:42;;;;;;;3.50;1.37;;;;;;;8.55;49.18;96454.91;4961052;28;20289;-70
2023/02/25 05:42:07;;;;;;;3.40;1.70;;;;;;;8.56;49.18;96462.56;4963371;28;20186;-72
2023/02/25 05:44:33;;;;;;;3.67;1.70;;;;;;;8.54;48.60;96454.06;4953155;28;20748;-70
2023/02/25 05:46:58;;;;;;;7.23;1.53;;;;;;;8.56;49.48;96464.38;4952883;28;20186;-72
2023/02/25 05:49:24;;;;;;;2.10;1.17;;;;;;;8.53;49.46;96455.06;4953454;28;20178;-71
2023/02/25 05:51:49;;;;;;;9.67;1.80;;;;;;;8.51;49.01;96457.00;4951951;28;20213;-71
2023/02/25 05:54:15;;;;;;;4.57;1.40;;;;;;;8.53;49.58;96459.47;4953296;28;20221;-71
2023/02/25 05:56:43;;;;;;;6.70;1.57;;;;;;;8.53;48.79;96459.47;4952744;28;20182;-71
2023/02/25 05:59:10;;;;;;;8.13;1.70;;;;;;;8.49;49.12;96460.75;4956734;28;20425;-70
2023/02/25 06:01:36;;;;;;;3.07;1.33;;;;;;;8.53;48.72;96464.69;4955054;28;20435;-71
2023/02/25 06:04:01;;;;;;;3.53;1.77;;;;;;;8.50;48.92;96467.59;4953791;28;20942;-70
2023/02/25 06:06:28;;;;;;;7.60;1.70;;;;;;;8.51;48.65;96459.59;4953750;28;20186;-70
2023/02/25 06:08:54;;;;;;;5.17;1.27;;;;;;;8.56;49.48;96467.81;4951363;28;20186;-70
2023/02/25 06:11:23;;;;;;;3.57;1.60;;;;;;;8.57;48.33;96460.78;4958690;28;20439;-69
2023/02/25 06:13:50;;;;;;;12.50;1.67;;;;;;;8.48;48.30;96469.56;4962843;28;20920;-69
2023/02/25 06:16:17;;;;;;;4.50;1.50;;;;;;;8.51;48.53;96477.09;4953587;28;20442;-69
2023/02/25 06:18:42;;;;;;;16.10;4.50;;;;;;;8.55;48.70;96488.88;4939132;28;20521;-69
2023/02/25 06:21:10;;;;;;;13.37;3.20;;;;;;;8.52;48.48;96481.34;4957785;28;20429;-72
2023/02/25 06:23:37;;;;;;;5.23;2.13;;;;;;;8.51;49.39;96488.34;4969395;28;20209;-71
2023/02/25 06:26:04;;;;;;;7.40;2.03;;;;;;;8.53;48.84;96482.97;4960881;28;20418;-69
2023/02/25 06:28:30;;;;;;;3.80;1.70;;;;;;;8.55;48.84;96491.47;4952840;28;20434;-70
2023/02/25 06:30:55;;;;;;;4.93;1.63;;;;;;;8.54;49.82;96489.84;4949561;28;20441;-69
2023/02/25 06:33:21;;;;;;;3.87;1.30;;;;;;;8.60;50.00;96483.97;4961112;28;20202;-70
2023/02/25 06:35:51;;;;;;;2.80;1.33;;;;;;;8.66;49.37;96490.34;4954855;28;20229;-70
2023/02/25 06:38:16;;;;;;;4.57;1.50;;;;;;;8.59;49.78;96493.63;4940031;28;20186;-70
2023/02/25 06:40:42;;;;;;;2.83;1.40;;;;;;;8.57;50.49;96495.56;4960069;28;20437;-70
2023/02/25 06:43:07;;;;;;;4.40;1.47;;;;;;;8.60;50.46;96495.25;4955953;28;20206;-70
2023/02/25 06:45:33;;;;;;;5.13;1.40;;;;;;;8.62;49.69;96489.84;4958657;28;20221;-70
2023/02/25 06:47:58;;;;;;;2.60;1.20;;;;;;;8.65;50.57;96496.56;4952831;28;20187;-70
2023/02/25 06:50:23;;;;;;;2.47;1.27;;;;;;;8.54;50.50;96502.91;4959133;28;20194;-71
2023/02/25 06:52:49;;;;;;;3.97;1.60;;;;;;;8.54;49.20;96501.09;4960266;28;20221;-70
2023/02/25 06:55:14;;;;;;;4.80;1.73;;;;;;;8.63;49.37;96498.53;4957634;28;20237;-69
2023/02/25 06:57:40;;;;;;;3.47;1.40;;;;;;;8.56;48.58;96493.13;4956351;28;20662;-70
2023/02/25 07:00:06;;;;;;;7.00;1.60;;;;;;;8.51;48.19;96496.16;4958285;28;20186;-69
2023/02/25 07:02:31;;;;;;;4.90;1.60;;;;;;;8.49;48.91;96495.53;4959718;28;20301;-70
2023/02/25 07:04:57;;;;;;;2.60;1.63;;;;;;;8.54;49.31;96510.72;4953088;28;20572;-70
2023/02/25 07:07:22;;;;;;;10.30;1.97;;;;;;;8.63;48.00;96511.59;4952995;28;20182;-70
2023/02/25 07:09:48;;;;;;;5.23;1.60;;;;;;;8.59;48.79;96513.69;4951914;28;20269;-70
2023/02/25 07:12:13;;;;;;;5.00;1.97;;;;;;;8.68;48.87;96511.91;4952965;28;20182;-69
2023/02/25 07:14:39;;;;;;;8.33;1.83;;;;;;;8.79;48.53;96513.44;4955019;28;20218;-70
2023/02/25 07:17:04;;;;;;;4.13;2.10;;;;;;;8.73;48.25;96510.47;4952485;28;20670;-71
2023/02/25 07:19:29;;;;;;;5.40;1.73;;;;;;;8.75;48.27;96511.13;4952297;28;20629;-69
2023/02/25 07:21:55;;;;;;;7.43;2.73;;;;;;;8.86;47.91;96506.59;4951721;28;20245;-70
2023/02/25 07:24:22;;;;;;;10.27;2.87;;;;;;;8.93;48.12;96501.56;4952384;28;20281;-70
2023/02/25 07:26:47;;;;;;;3.50;2.23;;;;;;;9.01;47.84;96499.78;4960035;28;20185;-70
2023/02/25 07:29:13;;;;;;;6.70;2.03;;;;;;;9.04;47.21;96506.47;4967500;28;20449;-72
2023/02/25 07:31:38;;;;;;;3.73;2.07;;;;;;;9.06;47.32;96507.97;4951819;28;20193;-70
2023/02/25 07:34:04;;;;;;;4.83;2.60;;;;;;;9.12;47.01;96516.97;4955771;28;20574;-69
2023/02/25 07:36:32;;;;;;;3.07;1.80;;;;;;;9.19;47.07;96514.53;4951558;28;20687;-69
2023/02/25 07:38:58;;;;;;;3.90;1.87;;;;;;;9.26;46.73;96520.75;4950240;28;20229;-69
2023/02/25 07:41:24;;;;;;;2.33;1.40;;;;;;;9.34;47.20;96517.34;4952728;28;20930;-69
2023/02/25 07:43:49;;;;;;;12.97;3.00;;;;;;;9.45;47.57;96521.44;4966174;28;20521;-70
2023/02/25 07:46:15;;;;;;;3.77;1.73;;;;;;;9.52;47.03;96519.81;4951289;28;20249;-68
2023/02/25 07:48:40;;;;;;;2.60;1.20;;;;;;;9.62;46.06;96512.63;4951366;28;20550;-69
2023/02/25 07:51:07;;;;;;;3.10;1.30;;;;;;;9.66;45.07;96511.31;4950912;28;20217;-70
2023/02/25 07:53:33;;;;;;;5.63;1.40;;;;;;;9.71;44.07;96508.19;4950777;28;20225;-69
2023/02/25 07:55:59;;;;;;;9.30;1.60;;;;;;;9.75;44.72;96508.69;4952545;28;20426;-69
2023/02/25 07:58:27;;;;;;;7.67;1.23;;;;;;;9.82;44.07;96507.06;4951343;28;20217;-68
2023/02/25 08:00:53;;;;;;;4.27;1.47;;;;;;;9.83;43.34;96496.41;4951054;28;20430;-69
2023/02/25 08:03:18;;;;;;;2.63;1.30;;;;;;;9.88;43.47;96501.16;4950062;28;20455;-68
2023/02/25 08:05:44;;;;;;;4.70;1.43;;;;;;;9.88;42.93;96500.34;4950227;28;20430;-68
2023/02/25 08:08:09;;;;;;;5.33;1.63;;;;;;;9.90;43.14;96500.97;4953250;28;20269;-69
2023/02/25 08:10:35;;;;;;;2.90;1.30;;;;;;;9.84;41.78;96505.06;4952851;28;20245;-71
2023/02/25 08:13:01;;;;;;;3.60;1.40;;;;;;;9.82;42.08;96509.69;4968177;28;20228;-71
2023/02/25 08:15:26;;;;;;;3.47;1.50;;;;;;;9.90;41.41;96509.66;4950941;28;20560;-70
2023/02/25 08:17:54;;;;;;;6.60;1.93;;;;;;;9.98;41.60;96508.84;4934737;28;20651;-71
2023/02/25 08:20:20;;;;;;;3.30;1.80;;;;;;;10.19;40.77;96503.09;4950502;28;20218;-72
2023/02/25 08:22:45;;;;;;;2.90;2.00;;;;;;;10.48;41.47;96498.28;4950796;28;20474;-71
2023/02/25 08:25:11;;;;;;;4.27;1.77;;;;;;;10.73;39.55;96496.38;4951590;28;20282;-70
2023/02/25 08:27:36;;;;;;;4.23;1.60;;;;;;;11.06;39.34;96496.25;4950218;28;20186;-71
2023/02/25 08:30:03;;;;;;;3.73;1.40;;;;;;;11.39;39.96;96492.59;4951286;28;20189;-71
2023/02/25 08:32:28;;;;;;;4.00;1.27;;;;;;;11.69;38.80;96496.13;4933587;29;20201;-72
2023/02/25 08:34:55;;;;;;;7.10;1.73;;;;;;;11.76;38.47;96507.56;4951149;28;20541;-72
2023/02/25 08:37:21;;;;;;;3.63;1.20;;;;;;;11.64;37.40;96493.22;4950616;28;20241;-70
2023/02/25 08:39:46;;;;;;;2.27;1.40;;;;;;;11.55;36.49;96489.03;4949394;28;20428;-70
2023/02/25 08:42:14;;;;;;;1.93;1.00;;;;;;;11.50;37.41;96500.84;4952383;28;20418;-72
2023/02/25 08:44:40;;;;;;;3.97;1.23;;;;;;;11.43;37.37;96502.56;4950484;28;20215;-70
2023/02/25 08:47:05;;;;;;;2.30;1.30;;;;;;;11.32;37.34;96500.34;4950089;28;20456;-71
2023/02/25 08:49:30;;;;;;;3.53;1.30;;;;;;;11.13;37.34;96512.09;4951686;28;20253;-70
2023/02/25 08:51:56;;;;;;;4.83;1.40;;;;;;;10.91;37.78;96504.81;4949965;28;20273;-70
2023/02/25 08:54:21;;;;;;;6.33;1.70;;;;;;;10.89;37.74;96498.13;4950256;28;20309;-70
2023/02/25 08:56:49;;;;;;;4.10;1.40;;;;;;;10.72;37.46;96500.00;4949917;28;20182;-70
2023/02/25 08:59:15;;;;;;;4.83;1.60;;;;;;;11.07;38.33;96500.50;4951236;28;20237;-70
2023/02/25 09:01:45;;;;;;;10.20;1.60;;;;;;;11.08;37.68;96512.63;4950152;28;20522;-70
2023/02/25 09:04:17;;;;;;;3.23;1.33;;;;;;;10.96;37.42;96511.38;4950310;28;20430;-70
2023/02/25 09:06:46;;;;;;;2.80;1.50;;;;;;;10.82;37.78;96515.50;4949576;28;20431;-69
2023/02/25 09:09:12;;;;;;;6.00;1.70;;;;;;;10.77;38.09;96518.66;4949677;28;20437;-69
2023/02/25 09:11:39;;;;;;;3.73;1.60;;;;;;;10.66;38.10;96519.03;4950175;28;20925;-69
2023/02/25 09:14:05;;;;;;;6.80;1.60;;;;;;;10.69;38.26;96521.31;4950421;28;20474;-69
2023/02/25 09:16:30;;;;;;;4.30;1.30;;;;;;;10.72;38.49;96518.34;4951116;28;20434;-69
2023/02/25 09:18:56;;;;;;;7.73;1.50;;;;;;;10.67;38.50;96520.66;4950098;28;20202;-71
2023/02/25 09:21:22;;;;;;;3.93;1.40;;;;;;;10.63;38.25;96514.94;4950909;28;20179;-70
2023/02/25 09:23:50;;;;;;;3.70;1.47;;;;;;;10.52;38.64;96516.13;4949266;28;20202;-69
2023/02/25 09:26:16;;;;;;;2.33;1.37;;;;;;;10.52;37.69;96515.31;4964240;28;20592;-68
2023/02/25 09:28:41;;;;;;;2.17;1.40;;;;;;;10.53;38.44;96517.75;4949727;28;20425;-70
2023/02/25 09:31:07;;;;;;;4.80;2.20;;;;;;;10.68;38.94;96514.44;4951324;28;20437;-69
2023/02/25 09:33:34;;;;;;;3.67;1.80;;;;;;;10.69;38.78;96514.25;4951984;28;20210;-72
2023/02/25 09:36:14;;;;;;;7.30;1.63;;;;;;;10.68;38.19;96511.81;4951622;28;20237;-70
2023/02/25 09:38:41;;;;;;;2.17;1.30;;;;;;;10.63;37.27;96508.88;4947425;28;20432;-69
2023/02/25 09:41:24;;;;;;;3.60;1.70;;;;;;;11.12;37.29;96508.66;4950271;28;20461;-70
2023/02/25 09:44:08;;;;;;;3.43;1.23;;;;;;;11.71;35.73;96501.19;4948975;28;20806;-69
2023/02/25 09:46:40;;;;;;;5.40;1.10;;;;;;;12.50;36.29;96494.72;4931888;29;20457;-69
2023/02/25 09:49:11;;;;;;;3.97;2.00;;;;;;;13.01;33.46;96484.22;4932599;28;20458;-71
2023/02/25 09:51:40;;;;;;;3.43;1.27;;;;;;;13.30;32.15;96486.94;4963842;28;20456;-69
2023/02/25 09:54:12;;;;;;;2.93;1.73;;;;;;;13.30;31.09;96482.50;4962855;28;21356;-68
2023/02/25 09:56:38;;;;;;;2.50;1.13;;;;;;;13.03;31.15;96481.44;4948940;28;20430;-70
2023/02/25 09:59:10;;;;;;;3.50;1.13;;;;;;;12.89;31.31;96490.97;4949569;28;20442;-70
2023/02/25 10:01:38;;;;;;;4.03;1.27;;;;;;;12.68;31.94;96487.28;4960296;28;20226;-71
2023/02/25 10:04:14;;;;;;;1.50;0.90;;;;;;;12.93;31.40;96484.34;4962872;28;20815;-70
2023/02/25 10:06:42;;;;;;;2.13;1.00;;;;;;;13.03;32.46;96486.69;4964211;28;20442;-71
2023/02/25 10:09:26;;;;;;;2.30;1.10;;;;;;;12.78;31.53;96486.19;4932074;28;20426;-70
2023/02/25 10:11:56;;;;;;;2.07;1.07;;;;;;;12.65;32.73;96490.28;4949579;28;20427;-70
2023/02/25 10:14:50;;;;;;;1.70;0.90;;;;;;;12.41;32.46;96489.56;4949713;28;20894;-70
2023/02/25 10:17:42;;;;;;;1.60;0.70;;;;;;;12.23;32.46;96491.72;4964575;28;20421;-70
2023/02/25 10:20:45;;;;;;;1.00;0.70;;;;;;;11.94;32.60;96498.56;4950101;28;20766;-69
2023/02/25 10:23:16;;;;;;;2.73;0.80;;;;;;;11.82;33.31;96492.91;4948795;28;20438;-70
2023/02/25 10:25:48;;;;;;;1.40;0.90;;;;;;;11.73;33.67;96497.41;4952769;28;20430;-70
2023/02/25 10:28:16;;;;;;;3.00;1.00;;;;;;;11.72;34.03;96495.75;4933319;29;20811;-71
2023/02/25 10:31:07;;;;;;;1.10;0.90;;;;;;;11.65;33.55;96484.34;4954517;28;20484;-69
2023/02/25 10:33:35;;;;;;;2.53;1.10;;;;;;;11.65;33.18;96493.06;4953258;28;21036;-71
2023/02/25 10:36:08;;;;;;;1.10;0.70;;;;;;;11.82;33.59;96485.84;4953359;28;20983;-71
2023/02/25 10:38:37;;;;;;;2.60;0.90;;;;;;;11.92;32.62;96484.78;4953587;28;20433;-70
2023/02/25 10:41:04;;;;;;;1.70;0.83;;;;;;;11.86;33.06;96477.59;4952459;28;20426;-71
2023/02/25 10:43:29;;;;;;;5.40;0.93;;;;;;;11.82;32.63;96474.53;4953711;28;20453;-71
2023/02/25 10:46:17;;;;;;;2.57;1.23;;;;;;;11.74;33.42;96478.03;4952785;28;20434;-71
2023/02/25 10:48:47;;;;;;;1.30;0.80;;;;;;;11.71;33.05;96469.69;4935153;29;20289;-70
2023/02/25 10:51:14;;;;;;;7.73;1.10;;;;;;;11.56;33.95;96469.66;4953490;28;20641;-70
2023/02/25 10:53:51;;;;;;;2.07;0.90;;;;;;;11.53;34.13;96478.69;4952904;28;20470;-70
2023/02/25 10:56:17;;;;;;;1.10;0.80;;;;;;;11.50;34.35;96474.63;4951862;28;20926;-73
2023/02/25 10:58:45;;;;;;;2.80;1.43;;;;;;;11.46;34.41;96469.91;4952636;28;20488;-71
2023/02/25 11:01:14;;;;;;;2.60;1.00;;;;;;;11.36;34.32;96465.72;4946981;28;20210;-71
2023/02/25 11:03:46;;;;;;;2.60;1.00;;;;;;;11.34;34.08;96466.88;4959739;28;20437;-72
2023/02/25 11:06:17;;;;;;;1.33;0.87;;;;;;;11.29;34.33;96475.25;4956255;28;20421;-70
2023/02/25 11:08:43;;;;;;;3.00;1.03;;;;;;;11.29;33.98;96474.47;4962755;28;20460;-70
2023/02/25 11:11:23;;;;;;;2.27;0.73;;;;;;;11.27;34.33;96469.41;4963148;28;20476;-70
2023/02/25 11:14:01;;;;;;;2.70;1.37;;;;;;;11.27;34.18;96464.16;4957490;28;20572;-72
2023/02/25 11:16:27;;;;;;;1.27;0.70;;;;;;;11.29;33.79;96469.22;4953078;28;20434;-71
2023/02/25 11:18:56;;;;;;;1.30;0.90;;;;;;;11.28;33.42;96467.56;4935291;28;20427;-71
2023/02/25 11:21:30;;;;;;;3.37;1.20;;;;;;;11.24;33.86;96469.75;4962884;28;20433;-72
2023/02/25 11:24:00;;;;;;;3.93;0.90;;;;;;;11.22;34.17;96463.84;4943237;28;20456;-71
2023/02/25 11:26:32;;;;;;;2.60;1.13;;;;;;;11.26;33.99;96462.50;4957373;28;20425;-70
2023/02/25 11:29:03;;;;;;;2.50;1.10;;;;;;;11.36;33.91;96464.88;4962908;28;20923;-70
2023/02/25 11:31:39;;;;;;;2.03;1.37;;;;;;;11.53;34.03;96455.91;4967417;28;20426;-72
2023/02/25 11:34:13;;;;;;;1.90;0.93;;;;;;;11.67;33.57;96458.75;4936723;28;20477;-71
2023/02/25 11:36:39;;;;;;;1.70;0.97;;;;;;;11.68;33.58;96463.81;4944350;28;20425;-70
2023/02/25 11:39:26;;;;;;;1.93;1.00;;;;;;;11.59;34.16;96458.81;4962892;28;20957;-71
2023/02/25 11:41:54;;;;;;;1.53;1.10;;;;;;;11.45;33.90;96463.84;4955491;28;20425;-72
2023/02/25 11:44:27;;;;;;;3.33;1.00;;;;;;;11.29;34.12;96459.53;4936077;28;20454;-70
2023/02/25 11:47:22;;;;;;;1.47;0.90;;;;;;;11.10;34.64;96466.03;4952643;28;20448;-72